createdAt,value
2018-12-04T00:00:42.748Z,11.38
2018-12-04T00:03:10.421Z,11.29
2018-12-04T00:05:37.859Z,11.20
2018-12-04T00:08:05.637Z,11.18
2018-12-04T00:10:33.194Z,11.30
2018-12-04T00:13:00.801Z,11.25
2018-12-04T00:15:28.333Z,11.24
2018-12-04T00:17:55.911Z,11.32
2018-12-04T00:20:23.649Z,11.28
2018-12-04T00:22:51.288Z,11.30
2018-12-04T00:25:18.921Z,11.34
2018-12-04T00:27:46.615Z,11.36
2018-12-04T00:30:14.321Z,11.50
2018-12-04T00:32:41.936Z,11.59
2018-12-04T00:35:09.424Z,11.59
2018-12-04T00:37:37.272Z,11.57
2018-12-04T00:40:06.782Z,11.54
2018-12-04T00:42:34.392Z,11.54
2018-12-04T00:45:01.879Z,11.62
2018-12-04T00:47:29.640Z,11.61
2018-12-04T00:49:57.340Z,11.68
2018-12-04T00:52:25.070Z,11.71
2018-12-04T00:54:52.869Z,11.53
2018-12-04T00:57:20.506Z,11.32
2018-12-04T00:59:48.044Z,11.19
2018-12-04T01:02:15.556Z,11.20
2018-12-04T01:04:43.154Z,11.26
2018-12-04T01:07:10.703Z,11.33
2018-12-04T01:09:38.327Z,11.36
2018-12-04T01:12:06.037Z,11.31
2018-12-04T01:14:33.795Z,11.36
2018-12-04T01:17:01.449Z,11.50
2018-12-04T01:19:28.971Z,11.37
2018-12-04T01:21:56.403Z,11.24
2018-12-04T01:24:24.161Z,11.16
2018-12-04T01:26:58.530Z,11.17
2018-12-04T01:29:26.220Z,11.14
2018-12-04T01:31:54.024Z,11.15
2018-12-04T01:34:21.869Z,11.25
2018-12-04T01:36:49.987Z,11.18
2018-12-04T01:39:17.589Z,11.09
2018-12-04T01:41:45.210Z,10.98
2018-12-04T01:44:12.729Z,10.90
2018-12-04T01:46:40.430Z,10.84
2018-12-04T01:49:08.168Z,10.76
2018-12-04T01:51:35.720Z,10.66
2018-12-04T01:54:03.820Z,10.67
2018-12-04T01:56:31.307Z,10.65
2018-12-04T01:58:58.945Z,10.61
2018-12-04T02:01:26.683Z,10.65
2018-12-04T02:03:54.450Z,10.59
2018-12-04T02:06:22.055Z,10.57
2018-12-04T02:08:49.467Z,10.55
2018-12-04T02:11:17.380Z,10.54
2018-12-04T02:13:44.797Z,10.75
2018-12-04T02:16:12.476Z,10.69
2018-12-04T02:18:40.198Z,10.56
2018-12-04T02:21:07.796Z,10.40
2018-12-04T02:23:35.495Z,10.30
2018-12-04T02:26:03.590Z,10.21
2018-12-04T02:28:40.514Z,10.37
2018-12-04T02:31:09.457Z,10.39
2018-12-04T02:33:37.135Z,10.45
2018-12-04T02:36:04.612Z,10.50
2018-12-04T02:38:32.192Z,10.67
2018-12-04T02:41:00.049Z,10.78
2018-12-04T02:43:28.127Z,10.69
2018-12-04T02:45:55.890Z,10.54
2018-12-04T02:48:23.628Z,10.49
2018-12-04T02:50:51.100Z,10.47
2018-12-04T02:53:18.684Z,10.56
2018-12-04T02:55:46.056Z,10.61
2018-12-04T02:58:13.608Z,10.72
2018-12-04T03:00:41.135Z,10.76
2018-12-04T03:03:08.851Z,10.74
2018-12-04T03:05:36.293Z,10.64
2018-12-04T03:08:03.992Z,10.49
2018-12-04T03:10:31.729Z,10.31
2018-12-04T03:12:59.299Z,10.30
2018-12-04T03:15:27.239Z,10.18
2018-12-04T03:17:54.888Z,10.26
2018-12-04T03:20:22.523Z,10.44
2018-12-04T03:22:50.383Z,10.57
2018-12-04T03:25:18.082Z,10.63
2018-12-04T03:27:45.955Z,10.89
2018-12-04T03:30:13.567Z,10.92
2018-12-04T03:32:41.193Z,11.00
2018-12-04T03:35:08.979Z,11.01
2018-12-04T03:37:36.436Z,11.03
2018-12-04T03:40:06.174Z,11.04
2018-12-04T03:42:33.618Z,11.20
2018-12-04T03:45:01.456Z,11.09
2018-12-04T03:47:29.280Z,11.08
2018-12-04T03:49:56.972Z,10.90
2018-12-04T03:52:24.577Z,10.92
2018-12-04T03:54:52.276Z,10.76
2018-12-04T03:57:20.004Z,10.81
2018-12-04T03:59:47.883Z,10.68
2018-12-04T04:02:15.594Z,10.58
2018-12-04T04:04:43.302Z,10.54
2018-12-04T04:07:10.837Z,10.54
2018-12-04T04:09:38.253Z,10.41
2018-12-04T04:12:05.569Z,10.39
2018-12-04T04:14:33.295Z,10.38
2018-12-04T04:17:00.892Z,10.27
2018-12-04T04:19:28.309Z,10.13
2018-12-04T04:21:56.053Z,10.19
2018-12-04T04:24:23.612Z,10.16
2018-12-04T04:26:51.881Z,10.08
2018-12-04T04:29:19.713Z,9.95
2018-12-04T04:31:47.402Z,9.91
2018-12-04T04:34:15.068Z,9.88
2018-12-04T04:36:42.785Z,10.01
2018-12-04T04:39:10.285Z,9.96
2018-12-04T04:41:38.001Z,9.95
2018-12-04T04:44:05.711Z,9.85
2018-12-04T04:46:33.285Z,9.79
2018-12-04T04:49:00.998Z,9.84
2018-12-04T04:51:28.369Z,9.83
2018-12-04T04:53:55.963Z,9.71
2018-12-04T04:56:23.624Z,9.66
2018-12-04T04:58:52.169Z,9.74
2018-12-04T05:01:20.192Z,9.65
2018-12-04T05:03:47.775Z,9.51
2018-12-04T05:06:15.449Z,9.38
2018-12-04T05:08:42.842Z,9.26
2018-12-04T05:11:10.364Z,9.33
2018-12-04T05:13:38.080Z,9.22
2018-12-04T05:16:05.756Z,9.16
2018-12-04T05:18:33.504Z,9.21
2018-12-04T05:21:00.860Z,9.26
2018-12-04T05:23:28.388Z,9.40
2018-12-04T05:25:56.212Z,9.42
2018-12-04T05:28:23.800Z,9.35
2018-12-04T05:30:51.426Z,9.26
2018-12-04T05:33:19.272Z,9.19
2018-12-04T05:35:46.678Z,9.14
2018-12-04T05:38:14.388Z,9.14
2018-12-04T05:40:42.060Z,9.09
2018-12-04T05:43:09.844Z,9.13
2018-12-04T05:45:37.584Z,9.29
2018-12-04T05:48:04.960Z,9.33
2018-12-04T05:50:32.608Z,9.26
2018-12-04T05:53:11.456Z,9.23
2018-12-04T05:55:39.102Z,9.09
2018-12-04T05:58:06.454Z,9.10
2018-12-04T06:00:34.049Z,9.08
2018-12-04T06:03:02.065Z,9.06
2018-12-04T06:05:29.526Z,9.09
2018-12-04T06:07:57.277Z,9.09
2018-12-04T06:10:24.972Z,9.04
2018-12-04T06:12:52.836Z,8.98
2018-12-04T06:15:20.629Z,8.96
2018-12-04T06:17:48.245Z,9.00
2018-12-04T06:20:15.841Z,9.08
2018-12-04T06:22:43.475Z,9.11
2018-12-04T06:25:11.187Z,9.09
2018-12-04T06:27:38.933Z,9.07
2018-12-04T06:30:07.477Z,9.08
2018-12-04T06:32:35.205Z,9.17
2018-12-04T06:35:02.807Z,9.26
2018-12-04T06:37:30.491Z,9.25
2018-12-04T06:39:57.969Z,9.24
2018-12-04T06:42:25.969Z,9.42
2018-12-04T06:44:53.532Z,9.36
2018-12-04T06:47:21.174Z,9.36
2018-12-04T06:49:48.991Z,9.34
2018-12-04T06:52:16.624Z,9.32
2018-12-04T06:54:44.472Z,9.32
2018-12-04T06:57:12.039Z,9.33
2018-12-04T06:59:39.848Z,9.33
2018-12-04T07:02:07.592Z,9.35
2018-12-04T07:04:35.277Z,9.39
2018-12-04T07:07:02.917Z,9.43
2018-12-04T07:09:30.559Z,9.60
2018-12-04T07:12:02.432Z,9.57
2018-12-04T07:14:27.942Z,9.51
2018-12-04T07:16:55.571Z,9.49
2018-12-04T07:19:23.295Z,9.50
2018-12-04T07:21:51.221Z,9.50
2018-12-04T07:24:18.908Z,9.50
2018-12-04T07:26:46.434Z,9.51
2018-12-04T07:29:14.160Z,9.55
2018-12-04T07:31:41.740Z,9.58
2018-12-04T07:34:09.320Z,9.54
2018-12-04T07:36:37.194Z,9.59
2018-12-04T07:39:07.073Z,9.67
2018-12-04T07:41:34.737Z,9.69
2018-12-04T07:44:02.325Z,9.66
2018-12-04T07:46:30.155Z,9.66
2018-12-04T07:48:57.651Z,9.69
2018-12-04T07:51:25.257Z,9.70
2018-12-04T07:53:52.731Z,9.69
2018-12-04T07:56:20.419Z,9.74
2018-12-04T07:58:47.929Z,9.74
2018-12-04T08:01:15.623Z,9.72
2018-12-04T08:03:42.993Z,9.71
2018-12-04T08:06:11.319Z,9.71
2018-12-04T08:08:39.219Z,9.67
2018-12-04T08:11:07.137Z,9.69
2018-12-04T08:13:34.589Z,9.76
2018-12-04T08:16:02.245Z,9.88
2018-12-04T08:18:29.904Z,9.93
2018-12-04T08:20:57.473Z,10.04
2018-12-04T08:23:24.999Z,10.16
2018-12-04T08:25:52.501Z,10.24
2018-12-04T08:28:20.321Z,10.35
2018-12-04T08:30:48.145Z,10.41
2018-12-04T08:33:15.739Z,10.48
2018-12-04T08:35:43.112Z,10.54
2018-12-04T08:38:10.753Z,10.55
2018-12-04T08:40:38.248Z,10.51
2018-12-04T08:43:05.792Z,10.40
2018-12-04T08:45:33.591Z,10.34
2018-12-04T08:48:01.272Z,10.28
2018-12-04T08:50:29.668Z,10.29
2018-12-04T08:52:57.270Z,10.32
2018-12-04T08:55:24.785Z,10.40
2018-12-04T08:57:52.263Z,10.50
2018-12-04T09:00:20.199Z,10.70
2018-12-04T09:02:47.917Z,10.89
2018-12-04T09:05:15.644Z,11.03
2018-12-04T09:07:43.431Z,11.15
2018-12-04T09:10:11.085Z,11.28
2018-12-04T09:12:38.747Z,11.38
2018-12-04T09:15:06.537Z,11.45
2018-12-04T09:17:34.227Z,11.56
2018-12-04T09:20:02.076Z,11.66
2018-12-04T09:22:29.996Z,11.80
2018-12-04T09:24:57.702Z,11.89
2018-12-04T09:27:25.531Z,11.95
2018-12-04T09:29:53.184Z,11.97
2018-12-04T09:32:20.821Z,11.89
2018-12-04T09:34:48.611Z,11.86
2018-12-04T09:37:16.195Z,11.81
2018-12-04T09:39:43.867Z,11.83
2018-12-04T09:42:11.589Z,11.90
2018-12-04T09:44:39.291Z,11.87
2018-12-04T09:47:06.942Z,11.71
2018-12-04T09:49:34.936Z,11.57
2018-12-04T09:52:02.696Z,11.30
2018-12-04T09:54:30.277Z,11.15
2018-12-04T09:56:57.985Z,11.20
2018-12-04T09:59:26.210Z,11.39
2018-12-04T10:01:53.978Z,11.48
2018-12-04T10:04:21.580Z,11.60
2018-12-04T10:06:49.259Z,11.74
2018-12-04T10:09:17.058Z,11.96
2018-12-04T10:11:44.667Z,12.07
2018-12-04T10:14:12.377Z,12.12
2018-12-04T10:16:41.258Z,12.17
2018-12-04T10:19:08.824Z,12.21
2018-12-04T10:21:36.451Z,12.14
2018-12-04T10:24:04.185Z,12.05
2018-12-04T10:26:31.808Z,11.97
2018-12-04T10:28:59.457Z,11.92
2018-12-04T10:31:27.065Z,11.86
2018-12-04T10:33:54.795Z,11.84
2018-12-04T10:36:22.413Z,11.91
2018-12-04T10:38:49.998Z,12.07
2018-12-04T10:41:17.625Z,12.23
2018-12-04T10:43:45.179Z,12.44
2018-12-04T10:46:12.861Z,12.66
2018-12-04T10:48:40.440Z,12.73
2018-12-04T10:51:08.165Z,12.82
2018-12-04T10:53:35.795Z,12.81
2018-12-04T10:56:03.237Z,12.73
2018-12-04T10:58:30.933Z,12.61
2018-12-04T11:01:00.533Z,12.37
2018-12-04T11:03:38.169Z,12.16
2018-12-04T11:06:06.743Z,12.06
2018-12-04T11:08:34.423Z,12.10
2018-12-04T11:11:02.389Z,12.01
2018-12-04T11:13:30.454Z,11.91
2018-12-04T11:15:58.095Z,11.94
2018-12-04T11:18:25.691Z,11.93
2018-12-04T11:20:53.294Z,11.91
2018-12-04T11:23:20.827Z,11.95
2018-12-04T11:25:48.454Z,12.00
2018-12-04T11:28:16.022Z,11.95
2018-12-04T11:30:43.803Z,11.89
2018-12-04T11:33:11.571Z,11.88
2018-12-04T11:35:38.995Z,11.69
2018-12-04T11:38:06.646Z,11.45
2018-12-04T11:40:34.300Z,11.17
2018-12-04T11:43:01.930Z,10.93
2018-12-04T11:45:29.566Z,10.80
2018-12-04T11:47:56.934Z,10.85
2018-12-04T11:50:24.692Z,10.95
2018-12-04T11:52:52.370Z,10.92
2018-12-04T11:55:20.145Z,10.86
2018-12-04T11:57:47.804Z,10.73
2018-12-04T12:00:36.613Z,10.54
2018-12-04T12:03:04.567Z,10.28
2018-12-04T12:05:32.127Z,10.06
2018-12-04T12:07:59.813Z,9.91
2018-12-04T12:10:27.864Z,9.77
2018-12-04T12:12:55.442Z,9.63
2018-12-04T12:15:23.129Z,9.54
2018-12-04T12:17:50.870Z,9.45
2018-12-04T12:20:18.472Z,9.37
2018-12-04T12:22:46.349Z,9.33
2018-12-04T12:25:14.115Z,9.25
2018-12-04T12:27:42.547Z,9.16
2018-12-04T12:30:10.388Z,9.09
2018-12-04T12:32:38.192Z,9.14
2018-12-04T12:35:07.192Z,9.19
2018-12-04T12:37:34.959Z,9.26
2018-12-04T12:40:02.673Z,9.33
2018-12-04T12:42:30.391Z,9.42
2018-12-04T12:44:57.837Z,9.42
2018-12-04T12:47:25.565Z,9.47
2018-12-04T12:49:53.275Z,9.55
2018-12-04T12:52:21.045Z,9.56
2018-12-04T12:54:48.714Z,9.49
2018-12-04T12:57:16.418Z,9.45
2018-12-04T12:59:44.132Z,9.46
2018-12-04T13:02:11.641Z,9.51
2018-12-04T13:04:39.364Z,9.58
2018-12-04T13:07:07.023Z,9.69
2018-12-04T13:09:34.617Z,9.95
2018-12-04T13:12:02.407Z,10.19
2018-12-04T13:14:29.968Z,10.41
2018-12-04T13:16:57.487Z,10.57
2018-12-04T13:19:25.113Z,10.72
2018-12-04T13:21:52.701Z,10.87
2018-12-04T13:24:20.234Z,10.95
2018-12-04T13:26:47.753Z,11.09
2018-12-04T13:29:15.689Z,11.04
2018-12-04T13:31:43.411Z,11.03
2018-12-04T13:34:11.026Z,11.05
2018-12-04T13:36:38.946Z,11.11
2018-12-04T13:39:09.122Z,11.15
2018-12-04T13:41:36.931Z,11.08
2018-12-04T13:44:04.514Z,10.94
2018-12-04T13:46:32.634Z,10.66
2018-12-04T13:49:00.402Z,10.47
2018-12-04T13:51:28.047Z,10.34
2018-12-04T13:53:55.662Z,10.14
2018-12-04T13:56:23.375Z,10.04
2018-12-04T13:58:51.391Z,9.86
2018-12-04T14:01:19.162Z,9.71
2018-12-04T14:03:46.743Z,9.63
2018-12-04T14:06:14.458Z,9.47
2018-12-04T14:08:42.034Z,9.32
2018-12-04T14:11:09.817Z,9.14
2018-12-04T14:13:37.618Z,8.93
2018-12-04T14:16:05.233Z,8.80
2018-12-04T14:18:32.893Z,8.74
2018-12-04T14:21:00.450Z,8.66
2018-12-04T14:23:28.288Z,8.50
2018-12-04T14:25:56.162Z,8.44
2018-12-04T14:28:23.868Z,8.36
2018-12-04T14:30:51.477Z,8.30
2018-12-04T14:33:19.060Z,8.31
2018-12-04T14:35:46.496Z,8.30
2018-12-04T14:38:14.092Z,8.31
2018-12-04T14:40:41.824Z,8.24
2018-12-04T14:43:09.562Z,8.20
2018-12-04T14:45:37.274Z,8.08
2018-12-04T14:48:05.107Z,7.97
2018-12-04T14:50:32.728Z,8.00
2018-12-04T14:53:00.457Z,7.83
2018-12-04T14:55:28.007Z,7.65
2018-12-04T14:57:56.014Z,7.55
2018-12-04T15:00:23.991Z,7.42
2018-12-04T15:02:51.713Z,7.32
2018-12-04T15:05:19.477Z,7.15
2018-12-04T15:07:47.319Z,7.02
2018-12-04T15:10:15.230Z,6.98
2018-12-04T15:12:43.151Z,6.83
2018-12-04T15:15:10.623Z,6.66
2018-12-04T15:17:38.391Z,6.52
2018-12-04T15:20:07.601Z,6.39
2018-12-04T15:22:34.965Z,6.26
2018-12-04T15:25:03.142Z,6.14
2018-12-04T15:27:30.826Z,6.04
2018-12-04T15:29:59.492Z,5.98
2018-12-04T15:32:27.095Z,5.89
2018-12-04T15:34:54.758Z,5.87
2018-12-04T15:37:22.241Z,5.83
2018-12-04T15:39:50.126Z,5.88
2018-12-04T15:42:18.138Z,5.91
2018-12-04T15:44:45.933Z,6.04
2018-12-04T15:47:13.685Z,6.03
2018-12-04T15:49:41.461Z,5.96
2018-12-04T15:52:09.084Z,5.92
2018-12-04T15:54:37.043Z,5.98
2018-12-04T15:57:04.716Z,5.91
2018-12-04T15:59:32.320Z,5.86
2018-12-04T16:01:59.963Z,5.81
2018-12-04T16:04:27.907Z,5.81
2018-12-04T16:06:55.568Z,5.84
2018-12-04T16:09:23.306Z,5.86
2018-12-04T16:11:50.808Z,5.87
2018-12-04T16:14:18.520Z,5.77
2018-12-04T16:16:46.150Z,5.80
2018-12-04T16:19:13.576Z,5.71
2018-12-04T16:21:41.304Z,5.72
2018-12-04T16:24:08.678Z,5.57
2018-12-04T16:26:36.518Z,5.48
2018-12-04T16:29:04.125Z,5.41
2018-12-04T16:31:31.796Z,5.41
2018-12-04T16:33:59.541Z,5.38
2018-12-04T16:36:27.092Z,5.41
2018-12-04T16:38:54.501Z,5.35
2018-12-04T16:41:22.304Z,5.23
2018-12-04T16:43:49.910Z,5.22
2018-12-04T16:46:17.562Z,5.12
2018-12-04T16:48:45.210Z,5.06
2018-12-04T16:51:13.174Z,5.04
2018-12-04T16:53:40.962Z,5.00
2018-12-04T16:56:08.462Z,5.00
2018-12-04T16:58:36.192Z,4.94
2018-12-04T17:01:03.580Z,4.90
2018-12-04T17:03:31.424Z,4.82
2018-12-04T17:05:58.813Z,4.72
2018-12-04T17:08:26.561Z,4.73
2018-12-04T17:10:54.308Z,4.68
2018-12-04T17:13:22.380Z,4.62
2018-12-04T17:15:49.916Z,4.51
2018-12-04T17:18:17.551Z,4.42
2018-12-04T17:20:44.899Z,4.34
2018-12-04T17:23:12.642Z,4.33
2018-12-04T17:25:40.253Z,4.32
2018-12-04T17:28:07.887Z,4.32
2018-12-04T17:30:35.731Z,4.28
2018-12-04T17:33:03.828Z,4.23
2018-12-04T17:35:31.170Z,4.22
2018-12-04T17:37:58.751Z,4.21
2018-12-04T17:40:26.497Z,4.18
2018-12-04T17:42:54.357Z,4.27
2018-12-04T17:45:21.926Z,4.26
2018-12-04T17:47:49.697Z,4.15
2018-12-04T17:50:17.402Z,4.11
2018-12-04T17:52:44.872Z,4.09
2018-12-04T17:55:12.619Z,4.07
2018-12-04T17:57:40.337Z,4.10
2018-12-04T18:00:09.960Z,4.12
2018-12-04T18:02:37.716Z,4.13
2018-12-04T18:05:05.447Z,4.13
2018-12-04T18:07:33.007Z,4.12
2018-12-04T18:10:00.698Z,4.06
2018-12-04T18:12:28.501Z,4.00
2018-12-04T18:14:56.403Z,3.99
2018-12-04T18:17:24.058Z,3.97
2018-12-04T18:19:51.733Z,3.91
2018-12-04T18:22:20.448Z,3.81
2018-12-04T18:24:48.688Z,3.74
2018-12-04T18:27:16.300Z,3.76
2018-12-04T18:29:43.932Z,3.79
2018-12-04T18:32:11.725Z,3.83
2018-12-04T18:34:39.105Z,3.84
2018-12-04T18:37:06.862Z,3.86
2018-12-04T18:39:34.520Z,3.93
2018-12-04T18:42:02.322Z,3.99
2018-12-04T18:44:30.050Z,3.98
2018-12-04T18:46:57.650Z,3.88
2018-12-04T18:49:25.243Z,3.77
2018-12-04T18:51:52.968Z,3.75
2018-12-04T18:54:20.626Z,3.68
2018-12-04T18:56:48.321Z,3.61
2018-12-04T18:59:15.938Z,3.60
2018-12-04T19:01:43.795Z,3.60
2018-12-04T19:04:11.480Z,3.61
2018-12-04T19:06:39.424Z,3.57
2018-12-04T19:09:07.401Z,3.50
2018-12-04T19:11:35.545Z,3.44
2018-12-04T19:14:03.477Z,3.38
2018-12-04T19:16:31.002Z,3.37
2018-12-04T19:18:58.676Z,3.36
2018-12-04T19:21:26.074Z,3.50
2018-12-04T19:23:53.851Z,3.63
2018-12-04T19:26:21.611Z,3.68
2018-12-04T19:28:52.095Z,3.77
2018-12-04T19:31:19.710Z,3.80
2018-12-04T19:33:47.538Z,3.78
2018-12-04T19:36:15.183Z,3.71
2018-12-04T19:38:42.855Z,3.61
2018-12-04T19:41:10.491Z,3.51
2018-12-04T19:43:38.297Z,3.42
2018-12-04T19:46:05.916Z,3.34
2018-12-04T19:48:33.377Z,3.32
2018-12-04T19:51:00.793Z,3.29
2018-12-04T19:53:28.481Z,3.28
2018-12-04T19:55:56.229Z,3.32
2018-12-04T19:58:23.687Z,3.33
2018-12-04T20:00:51.337Z,3.27
2018-12-04T20:03:18.692Z,3.19
2018-12-04T20:05:46.089Z,3.21
2018-12-04T20:08:14.169Z,3.28
2018-12-04T20:10:41.781Z,3.27
2018-12-04T20:13:09.441Z,3.24
2018-12-04T20:15:37.028Z,3.22
2018-12-04T20:18:05.505Z,3.15
2018-12-04T20:20:32.958Z,3.08
2018-12-04T20:23:00.755Z,3.11
2018-12-04T20:25:35.421Z,3.11
2018-12-04T20:28:04.915Z,3.10
2018-12-04T20:30:36.707Z,3.06
2018-12-04T20:33:04.446Z,2.99
2018-12-04T20:35:31.827Z,2.92
2018-12-04T20:37:59.492Z,2.84
2018-12-04T20:40:31.459Z,2.78
2018-12-04T20:42:56.924Z,2.71
2018-12-04T20:45:24.290Z,2.70
2018-12-04T20:47:51.953Z,2.70
2018-12-04T20:50:19.366Z,2.81
2018-12-04T20:52:46.910Z,3.07
2018-12-04T20:55:14.484Z,3.11
2018-12-04T20:57:42.464Z,3.09
2018-12-04T21:00:11.700Z,3.00
2018-12-04T21:02:39.568Z,2.89
2018-12-04T21:05:09.380Z,2.85
2018-12-04T21:07:38.600Z,2.75
2018-12-04T21:10:06.759Z,2.64
2018-12-04T21:12:34.545Z,2.54
2018-12-04T21:15:02.725Z,2.51
2018-12-04T21:17:30.333Z,2.51
2018-12-04T21:19:58.037Z,2.50
2018-12-04T21:22:25.676Z,2.58
2018-12-04T21:24:53.691Z,2.61
2018-12-04T21:27:27.181Z,2.65
2018-12-04T21:30:00.520Z,2.61
2018-12-04T21:32:34.101Z,2.54
2018-12-04T21:35:07.369Z,2.51
2018-12-04T21:37:40.726Z,2.53
2018-12-04T21:40:14.525Z,2.51
2018-12-04T21:42:47.575Z,2.48
2018-12-04T21:45:20.938Z,2.49
2018-12-04T21:47:57.639Z,2.51
2018-12-04T21:50:25.193Z,2.54
2018-12-04T21:52:52.575Z,2.58
2018-12-04T21:55:20.215Z,2.66
2018-12-04T21:57:47.911Z,2.73
2018-12-04T22:00:17.812Z,2.72
2018-12-04T22:02:45.441Z,2.68
2018-12-04T22:05:13.464Z,2.69
2018-12-04T22:07:41.100Z,3.00
2018-12-04T22:10:08.830Z,3.14
2018-12-04T22:12:36.421Z,3.15
2018-12-04T22:15:04.326Z,3.16
2018-12-04T22:17:32.349Z,3.12
2018-12-04T22:19:59.912Z,2.98
2018-12-04T22:22:27.480Z,2.87
2018-12-04T22:24:55.012Z,2.80
2018-12-04T22:27:22.746Z,2.73
2018-12-04T22:29:50.220Z,2.71
2018-12-04T22:32:17.911Z,2.66
2018-12-04T22:34:45.372Z,2.60
2018-12-04T22:37:12.878Z,2.57
2018-12-04T22:39:41.400Z,2.50
2018-12-04T22:42:09.112Z,2.49
2018-12-04T22:44:36.750Z,2.49
2018-12-04T22:47:04.585Z,2.46
2018-12-04T22:49:32.140Z,2.44
2018-12-04T22:51:59.848Z,2.41
2018-12-04T22:54:27.546Z,2.36
2018-12-04T22:56:55.201Z,2.36
2018-12-04T22:59:22.766Z,2.38
2018-12-04T23:01:50.549Z,2.34
2018-12-04T23:04:18.393Z,2.30
2018-12-04T23:06:46.005Z,2.27
2018-12-04T23:09:13.423Z,2.26
2018-12-04T23:11:41.136Z,2.28
2018-12-04T23:14:08.844Z,2.25
2018-12-04T23:16:36.442Z,2.17
2018-12-04T23:19:04.246Z,2.11
2018-12-04T23:21:31.673Z,2.20
2018-12-04T23:23:59.477Z,2.28
2018-12-04T23:26:27.019Z,2.30
2018-12-04T23:28:54.797Z,2.34
2018-12-04T23:31:23.111Z,2.44
2018-12-04T23:33:50.673Z,2.50
2018-12-04T23:36:18.765Z,2.59
2018-12-04T23:38:46.275Z,2.63
2018-12-04T23:41:13.877Z,2.72
2018-12-04T23:43:41.790Z,2.78
2018-12-04T23:46:09.547Z,2.87
2018-12-04T23:48:37.147Z,2.92
2018-12-04T23:51:04.673Z,2.97
2018-12-04T23:53:32.318Z,3.00
2018-12-04T23:55:59.946Z,3.05
2018-12-04T23:58:27.433Z,3.09
